Time;durP1;ratioP1;P1;durP2;ratioP2;P2;SDS_P1;SDS_P2;PMS_P1;PMS_P2;Temp;Humidity;BMP_temperature;BMP_pressure;BME280_temperature;BME280_humidity;BME280_pressure;Samples;Min_cycle;Max_cycle;Signal;HPM_P1;HPM_P2
2022/12/07 00:01:17;;;;;;;11.53;10.37;;;4.80;99.90;;;;;;5053119;28;20553;-66
2022/12/07 00:03:44;;;;;;;13.47;12.13;;;4.80;99.90;;;;;;5052854;28;20194;-66
2022/12/07 00:06:13;;;;;;;14.17;11.47;;;4.80;99.90;;;;;;5051965;28;20191;-66
2022/12/07 00:08:39;;;;;;;17.57;11.43;;;4.80;99.90;;;;;;5052840;28;20179;-66
2022/12/07 00:11:16;;;;;;;18.97;12.10;;;4.70;99.90;;;;;;5052570;28;20183;-66
2022/12/07 00:13:43;;;;;;;20.30;11.10;;;4.70;99.90;;;;;;5052783;28;20182;-66
2022/12/07 00:16:14;;;;;;;10.97;10.17;;;4.70;99.90;;;;;;5052580;28;20622;-66
2022/12/07 00:18:40;;;;;;;14.50;12.57;;;4.70;99.90;;;;;;5052740;28;20175;-66
2022/12/07 00:21:39;;;;;;;12.50;11.30;;;4.70;99.90;;;;;;5052582;28;20238;-66
2022/12/07 00:24:06;;;;;;;15.47;10.57;;;4.60;99.90;;;;;;5034865;28;20190;-66
2022/12/07 00:26:34;;;;;;;13.07;11.67;;;4.60;99.90;;;;;;5052706;28;20628;-66
2022/12/07 00:29:05;;;;;;;12.23;10.20;;;4.60;99.90;;;;;;5052621;28;20648;-66
2022/12/07 00:31:35;;;;;;;12.77;11.57;;;4.60;99.90;;;;;;5052615;28;20274;-66
2022/12/07 00:34:01;;;;;;;13.13;11.80;;;4.60;99.90;;;;;;5052374;28;20218;-66
2022/12/07 00:36:27;;;;;;;13.53;11.90;;;4.70;99.90;;;;;;5052188;28;20710;-66
2022/12/07 00:38:53;;;;;;;15.10;13.17;;;4.70;99.90;;;;;;5052222;28;20167;-66
2022/12/07 00:41:24;;;;;;;16.80;12.83;;;4.70;99.90;;;;;;5052168;28;20746;-66
2022/12/07 00:43:51;;;;;;;16.63;10.73;;;4.80;99.90;;;;;;5052089;28;20174;-66
2022/12/07 00:46:18;;;;;;;21.13;12.90;;;4.70;99.90;;;;;;5052140;28;20194;-66
2022/12/07 00:48:44;;;;;;;12.40;11.20;;;4.80;99.90;;;;;;5034220;28;20270;-66
2022/12/07 00:51:11;;;;;;;13.27;11.57;;;4.70;99.90;;;;;;5051461;28;20644;-65
2022/12/07 00:53:38;;;;;;;13.00;11.07;;;4.70;99.90;;;;;;5052146;28;20174;-66
2022/12/07 00:56:12;;;;;;;11.03;10.03;;;4.70;99.90;;;;;;5051955;28;20199;-66
2022/12/07 00:58:38;;;;;;;15.00;10.87;;;4.70;99.90;;;;;;5051901;28;20182;-66
2022/12/07 01:01:06;;;;;;;13.77;11.40;;;4.70;99.90;;;;;;5051786;28;20249;-66
2022/12/07 01:03:31;;;;;;;14.23;12.90;;;4.70;99.90;;;;;;5051967;28;20171;-65
2022/12/07 01:05:58;;;;;;;11.23;10.13;;;4.70;99.90;;;;;;5034052;28;20545;-65
2022/12/07 01:08:25;;;;;;;17.07;12.57;;;4.70;99.90;;;;;;5051648;28;20167;-66
2022/12/07 01:11:19;;;;;;;15.00;11.87;;;4.80;99.90;;;;;;5051603;28;20433;-66
2022/12/07 01:13:45;;;;;;;12.63;11.47;;;4.80;99.90;;;;;;5048945;28;20190;-66
2022/12/07 01:16:14;;;;;;;17.63;12.80;;;4.80;99.90;;;;;;5051211;28;20271;-65
2022/12/07 01:18:40;;;;;;;13.23;11.90;;;4.80;99.90;;;;;;5051724;28;20240;-66
2022/12/07 01:21:08;;;;;;;19.67;11.33;;;4.90;99.90;;;;;;5051966;28;20645;-66
2022/12/07 01:23:35;;;;;;;18.13;14.40;;;4.90;99.90;;;;;;5051996;28;20256;-65
2022/12/07 01:26:04;;;;;;;16.07;12.90;;;4.90;99.90;;;;;;5051821;28;20198;-66
2022/12/07 01:28:30;;;;;;;14.00;12.60;;;4.90;99.90;;;;;;5051623;28;20194;-66
2022/12/07 01:31:07;;;;;;;12.20;11.20;;;4.90;99.90;;;;;;5033655;28;20272;-66
2022/12/07 01:33:36;;;;;;;18.03;13.17;;;4.90;99.90;;;;;;5051787;28;20166;-66
2022/12/07 01:36:23;;;;;;;14.37;12.73;;;5.00;99.90;;;;;;5051599;28;20205;-66
2022/12/07 01:38:53;;;;;;;16.43;14.07;;;5.00;99.90;;;;;;5051376;28;20179;-65
2022/12/07 01:41:20;;;;;;;14.50;12.60;;;5.00;99.90;;;;;;5051433;28;20175;-66
2022/12/07 01:44:21;;;;;;;16.57;12.93;;;5.00;99.90;;;;;;5051233;28;20432;-65
2022/12/07 01:46:48;;;;;;;20.53;14.23;;;5.00;99.90;;;;;;5051815;28;20752;-66
2022/12/07 01:49:46;;;;;;;18.37;12.90;;;5.00;99.90;;;;;;5051336;28;20182;-66
2022/12/07 01:52:32;;;;;;;19.97;14.70;;;4.90;99.90;;;;;;5051715;28;20167;-66
2022/12/07 01:55:01;;;;;;;16.10;11.87;;;4.90;99.90;;;;;;5051119;28;20224;-66
2022/12/07 01:57:28;;;;;;;14.13;12.60;;;4.90;99.90;;;;;;5051480;28;20194;-66
2022/12/07 01:59:55;;;;;;;20.43;12.83;;;4.90;99.90;;;;;;5051100;28;20185;-66
2022/12/07 02:02:33;;;;;;;15.67;13.97;;;4.90;99.90;;;;;;5051614;28;20194;-65
2022/12/07 02:05:01;;;;;;;15.53;14.07;;;4.90;99.90;;;;;;5051379;28;20269;-66
2022/12/07 02:07:28;;;;;;;16.43;12.03;;;4.90;99.90;;;;;;5051296;28;20198;-65
2022/12/07 02:09:54;;;;;;;23.10;14.40;;;4.90;99.90;;;;;;5051025;28;20170;-66
2022/12/07 02:12:20;;;;;;;16.83;13.33;;;4.90;99.90;;;;;;5033334;28;20615;-66
2022/12/07 02:14:46;;;;;;;16.57;13.87;;;4.90;99.90;;;;;;5042814;28;20167;-66
2022/12/07 02:17:28;;;;;;;21.27;15.23;;;4.90;99.90;;;;;;5077028;22;20237;-67
2022/12/07 02:20:12;;;;;;;15.00;11.97;;;4.90;99.90;;;;;;5071160;28;20253;-68
2022/12/07 02:22:41;;;;;;;14.63;12.07;;;5.00;99.90;;;;;;5076356;28;20533;-68
2022/12/07 02:25:33;;;;;;;16.27;14.60;;;4.90;99.90;;;;;;5091366;28;20173;-67
2022/12/07 02:28:41;;;;;;;12.57;10.63;;;4.90;99.90;;;;;;5083890;28;20198;-68
2022/12/07 02:31:18;;;;;;;13.03;11.73;;;4.90;99.90;;;;;;4957266;28;20663;-68
2022/12/07 02:33:55;;;;;;;17.43;14.20;;;4.90;99.90;;;;;;5079223;28;20181;-68
2022/12/07 02:36:26;;;;;;;18.07;13.00;;;4.90;99.90;;;;;;5095021;28;20208;-68
2022/12/07 02:38:59;;;;;;;16.33;13.90;;;4.90;99.90;;;;;;5076097;28;20197;-67
2022/12/07 02:41:33;;;;;;;14.70;12.07;;;4.90;99.90;;;;;;5074636;28;20245;-68
2022/12/07 02:44:03;;;;;;;16.77;13.53;;;4.90;99.90;;;;;;5093376;28;20185;-68
2022/12/07 02:46:38;;;;;;;12.00;10.77;;;4.80;99.90;;;;;;5094940;28;20255;-68
2022/12/07 02:49:04;;;;;;;17.47;13.80;;;4.80;99.90;;;;;;5075563;28;20178;-67
2022/12/07 02:51:31;;;;;;;20.60;13.03;;;4.80;99.90;;;;;;5073935;28;20174;-67
2022/12/07 02:53:58;;;;;;;14.47;12.73;;;4.80;99.90;;;;;;5090839;28;20182;-68
2022/12/07 02:56:59;;;;;;;14.80;12.93;;;4.80;99.90;;;;;;5094114;28;20201;-68
2022/12/07 02:59:56;;;;;;;16.40;14.50;;;4.80;99.90;;;;;;5013721;28;20659;-67
2022/12/07 03:02:46;;;;;;;15.67;11.87;;;4.80;99.90;;;;;;5060831;28;20177;-67
2022/12/07 03:05:34;;;;;;;13.40;11.07;;;4.80;99.90;;;;;;5094626;28;20597;-67
2022/12/07 03:08:11;;;;;;;19.60;13.63;;;4.80;99.90;;;;;;5056185;28;20743;-67
2022/12/07 03:11:03;;;;;;;21.37;15.10;;;4.80;99.90;;;;;;5073997;28;20727;-68
2022/12/07 03:13:39;;;;;;;20.80;16.13;;;4.80;99.90;;;;;;5074395;28;20174;-67
2022/12/07 03:16:15;;;;;;;21.83;15.43;;;4.80;99.90;;;;;;5058925;28;20196;-67
2022/12/07 03:19:03;;;;;;;18.63;14.83;;;4.80;99.90;;;;;;5094711;28;20241;-66
2022/12/07 03:21:45;;;;;;;21.10;15.50;;;4.80;99.90;;;;;;5072412;28;20623;-68
2022/12/07 03:24:15;;;;;;;23.73;14.63;;;4.80;99.90;;;;;;5074530;28;20174;-67
2022/12/07 03:26:55;;;;;;;17.83;14.23;;;4.80;99.90;;;;;;5083005;28;20190;-66
2022/12/07 03:29:32;;;;;;;19.50;14.67;;;4.80;99.90;;;;;;5095155;28;20218;-67
2022/12/07 03:32:08;;;;;;;19.90;13.67;;;4.80;99.90;;;;;;5084877;28;20169;-67
2022/12/07 03:34:59;;;;;;;19.07;14.33;;;4.80;99.90;;;;;;5073922;28;20184;-66
2022/12/07 03:37:36;;;;;;;15.23;9.97;;;4.80;99.90;;;;;;5085516;28;20231;-66
2022/12/07 03:40:11;;;;;;;16.60;14.37;;;4.80;99.90;;;;;;5093333;28;20165;-67
2022/12/07 03:42:37;;;;;;;30.13;17.87;;;4.80;99.90;;;;;;5080507;28;20213;-67
2022/12/07 03:45:04;;;;;;;19.70;13.67;;;4.80;99.90;;;;;;5073541;28;20622;-66
2022/12/07 03:47:41;;;;;;;22.17;14.57;;;4.80;99.90;;;;;;5085165;28;20566;-66
2022/12/07 03:50:45;;;;;;;19.67;13.57;;;4.80;99.90;;;;;;5093454;28;20169;-67
2022/12/07 03:53:39;;;;;;;15.60;12.43;;;4.80;99.90;;;;;;5076545;28;20181;-66
2022/12/07 03:56:06;;;;;;;22.50;16.40;;;4.80;99.90;;;;;;5073197;28;20267;-66
2022/12/07 03:58:33;;;;;;;21.27;15.00;;;4.70;99.90;;;;;;5092220;28;20173;-67
2022/12/07 04:00:58;;;;;;;19.30;16.27;;;4.70;99.90;;;;;;5093032;28;20169;-66
2022/12/07 04:03:24;;;;;;;22.97;15.07;;;4.70;99.90;;;;;;5075713;28;20174;-67
2022/12/07 04:05:49;;;;;;;23.20;15.83;;;4.70;99.90;;;;;;5073135;28;20235;-67
2022/12/07 04:08:15;;;;;;;23.70;15.27;;;4.70;99.90;;;;;;5088826;28;20185;-67
2022/12/07 04:10:40;;;;;;;18.17;14.57;;;4.70;99.90;;;;;;5093005;28;20541;-67
2022/12/07 04:13:06;;;;;;;16.00;12.30;;;4.70;99.90;;;;;;5079026;28;20284;-67
2022/12/07 04:15:32;;;;;;;21.10;15.80;;;4.70;99.90;;;;;;5073016;28;20540;-67
2022/12/07 04:17:57;;;;;;;20.17;14.87;;;4.60;99.90;;;;;;5084655;28;20215;-67
2022/12/07 04:20:23;;;;;;;25.17;14.77;;;4.60;99.90;;;;;;5092838;28;20626;-67
2022/12/07 04:22:49;;;;;;;19.53;15.13;;;4.60;99.90;;;;;;5082425;28;20178;-67
2022/12/07 04:25:15;;;;;;;19.13;16.77;;;4.60;99.90;;;;;;5072870;28;20173;-67
2022/12/07 04:27:40;;;;;;;21.23;14.70;;;4.60;99.90;;;;;;5081173;28;20558;-67
2022/12/07 04:30:07;;;;;;;26.83;15.70;;;4.60;99.90;;;;;;5092910;28;20176;-67
2022/12/07 04:32:32;;;;;;;20.67;16.57;;;4.60;99.90;;;;;;5085736;28;20228;-67
2022/12/07 04:34:58;;;;;;;18.17;15.97;;;4.60;99.90;;;;;;5072717;28;20198;-67
2022/12/07 04:37:24;;;;;;;14.90;13.40;;;4.60;99.90;;;;;;5077414;28;20193;-68
2022/12/07 04:39:50;;;;;;;18.63;14.60;;;4.60;99.90;;;;;;5092469;28;20181;-68
2022/12/07 04:42:16;;;;;;;18.20;14.27;;;4.50;99.90;;;;;;5089109;28;20325;-68
2022/12/07 04:44:41;;;;;;;20.50;14.77;;;4.50;99.90;;;;;;5072514;28;20265;-68
2022/12/07 04:47:07;;;;;;;15.73;14.03;;;4.50;99.90;;;;;;5073709;28;20198;-67
2022/12/07 04:49:33;;;;;;;14.07;12.20;;;4.40;99.90;;;;;;5092649;28;20177;-67
2022/12/07 04:51:58;;;;;;;20.27;16.23;;;4.40;99.90;;;;;;5091597;28;20657;-67
2022/12/07 04:54:24;;;;;;;15.73;13.00;;;4.40;99.90;;;;;;5052318;28;20179;-67
2022/12/07 04:56:50;;;;;;;14.70;13.27;;;4.40;99.90;;;;;;5052437;28;20206;-67
2022/12/07 04:59:16;;;;;;;14.17;12.70;;;4.40;99.90;;;;;;5089141;28;20185;-67
2022/12/07 05:01:42;;;;;;;16.97;13.50;;;4.40;99.90;;;;;;5092409;28;20176;-67
2022/12/07 05:04:09;;;;;;;15.53;13.87;;;4.40;99.90;;;;;;5075097;28;20251;-67
2022/12/07 05:06:34;;;;;;;17.70;15.73;;;4.50;99.90;;;;;;5072052;28;20242;-67
2022/12/07 05:09:00;;;;;;;19.03;14.57;;;4.50;99.90;;;;;;5087175;28;20228;-67
2022/12/07 05:11:38;;;;;;;20.13;14.10;;;4.50;99.90;;;;;;5092190;28;20188;-68
2022/12/07 05:14:27;;;;;;;25.13;15.27;;;4.50;99.90;;;;;;5077138;28;20177;-68
2022/12/07 05:16:53;;;;;;;20.13;13.57;;;4.50;99.90;;;;;;5071838;28;20202;-68
2022/12/07 05:19:19;;;;;;;15.87;14.20;;;4.60;99.90;;;;;;5089179;28;20188;-67
2022/12/07 05:21:45;;;;;;;21.23;14.60;;;4.60;99.90;;;;;;5092656;28;20173;-67
2022/12/07 05:24:12;;;;;;;19.30;16.23;;;4.60;99.90;;;;;;5058908;28;20178;-67
2022/12/07 05:26:38;;;;;;;21.67;15.60;;;4.60;99.90;;;;;;5071968;28;20413;-67
2022/12/07 05:29:04;;;;;;;18.77;14.70;;;4.60;99.90;;;;;;5085337;28;20204;-67
2022/12/07 05:31:29;;;;;;;20.23;16.37;;;4.60;99.90;;;;;;5092207;28;20639;-68
2022/12/07 05:33:55;;;;;;;21.70;15.77;;;4.60;99.90;;;;;;5091727;28;20193;-68
2022/12/07 05:36:21;;;;;;;15.07;13.43;;;4.60;99.90;;;;;;5092088;28;20266;-68
2022/12/07 05:38:46;;;;;;;21.87;13.97;;;4.60;99.90;;;;;;5081847;28;20204;-68
2022/12/07 05:43:59;;;;;;;23.87;13.87;;;4.60;99.90;;;;;;5083186;28;20183;-67
2022/12/07 05:46:25;;;;;;;22.27;16.70;;;4.60;99.90;;;;;;5092065;28;20198;-68
2022/12/07 05:48:51;;;;;;;16.00;14.13;;;4.50;99.90;;;;;;5082361;28;20273;-67
2022/12/07 05:51:16;;;;;;;23.80;16.43;;;4.50;99.90;;;;;;5070725;28;20181;-67
2022/12/07 05:53:42;;;;;;;15.83;13.07;;;4.50;99.90;;;;;;5080045;28;20173;-67
2022/12/07 05:56:08;;;;;;;13.90;12.30;;;4.40;99.90;;;;;;5092088;28;20578;-68
2022/12/07 06:01:17;;;;;;;17.77;12.57;;;4.20;99.90;;;;;;5074752;28;20185;-68
2022/12/07 06:03:44;;;;;;;15.30;12.03;;;4.20;99.90;;;;;;5084849;28;20666;-68
2022/12/07 06:06:10;;;;;;;16.53;14.97;;;4.10;99.90;;;;;;5102272;28;20193;-68
2022/12/07 06:08:35;;;;;;;21.20;13.50;;;4.20;99.90;;;;;;5100354;28;20178;-68
2022/12/07 06:13:45;;;;;;;18.40;15.80;;;4.20;99.90;;;;;;5080695;28;20185;-68
2022/12/07 06:16:11;;;;;;;25.87;14.43;;;4.20;99.90;;;;;;5096059;28;20427;-68
2022/12/07 06:18:36;;;;;;;18.53;14.57;;;4.20;99.90;;;;;;5076829;28;20178;-67
2022/12/07 06:21:02;;;;;;;25.27;13.13;;;4.20;99.90;;;;;;5076145;28;20197;-68
2022/12/07 06:23:27;;;;;;;21.27;13.27;;;4.20;99.90;;;;;;5077724;28;20170;-67
2022/12/07 06:25:53;;;;;;;25.73;16.33;;;4.20;99.90;;;;;;5110386;28;20437;-68
2022/12/07 06:28:18;;;;;;;22.23;14.33;;;4.20;99.90;;;;;;5114662;28;20189;-69
2022/12/07 06:30:44;;;;;;;16.10;14.40;;;4.20;99.90;;;;;;5073574;28;20210;-69
2022/12/07 06:33:10;;;;;;;22.47;15.40;;;4.30;99.90;;;;;;5073693;28;20181;-68
2022/12/07 06:35:35;;;;;;;19.60;14.53;;;4.20;99.90;;;;;;5109789;28;20201;-68
2022/12/07 06:38:01;;;;;;;21.17;14.83;;;4.20;99.90;;;;;;5113580;28;20189;-68
2022/12/07 06:40:26;;;;;;;15.37;13.83;;;4.20;99.90;;;;;;5096008;28;20202;-69
2022/12/07 06:42:52;;;;;;;16.70;14.73;;;4.20;99.90;;;;;;5093600;28;20177;-68
2022/12/07 06:45:18;;;;;;;19.50;15.30;;;4.30;99.90;;;;;;5108135;28;20178;-68
2022/12/07 06:47:43;;;;;;;14.63;13.10;;;4.30;99.90;;;;;;5113168;28;20276;-69
2022/12/07 06:50:09;;;;;;;23.60;17.13;;;4.30;99.90;;;;;;5090609;28;20170;-69
2022/12/07 06:52:35;;;;;;;19.07;14.80;;;4.30;99.90;;;;;;5087571;28;20170;-69
2022/12/07 06:55:00;;;;;;;25.03;16.03;;;4.40;99.90;;;;;;5095929;28;20246;-68
2022/12/07 06:57:26;;;;;;;16.13;13.93;;;4.30;99.90;;;;;;5094704;28;20300;-68
2022/12/07 06:59:52;;;;;;;19.10;15.33;;;4.30;99.90;;;;;;5084500;28;20178;-68
2022/12/07 07:02:17;;;;;;;23.73;15.83;;;4.40;99.90;;;;;;5074333;28;20167;-68
2022/12/07 07:04:43;;;;;;;16.83;13.87;;;4.40;99.90;;;;;;5082349;28;20189;-68
2022/12/07 07:07:09;;;;;;;22.20;15.73;;;4.40;99.90;;;;;;5076285;28;20570;-69
2022/12/07 07:09:34;;;;;;;16.40;14.63;;;4.40;99.90;;;;;;5087947;28;20273;-68
2022/12/07 07:12:00;;;;;;;25.90;17.33;;;4.40;99.90;;;;;;5074200;28;20178;-68
2022/12/07 07:14:25;;;;;;;20.80;15.93;;;4.40;99.90;;;;;;5077899;28;20181;-68
2022/12/07 07:16:51;;;;;;;20.13;13.63;;;4.40;99.90;;;;;;5093984;28;20338;-68
2022/12/07 07:19:17;;;;;;;21.50;17.13;;;4.30;99.90;;;;;;5091227;28;20200;-68
2022/12/07 07:21:42;;;;;;;19.93;15.97;;;4.30;99.90;;;;;;5074367;28;20631;-67
2022/12/07 07:24:08;;;;;;;19.20;15.43;;;4.30;99.90;;;;;;5074662;28;20166;-68
2022/12/07 07:26:33;;;;;;;20.47;16.13;;;4.20;99.90;;;;;;5094106;28;20274;-68
2022/12/07 07:28:59;;;;;;;17.37;15.43;;;4.20;99.90;;;;;;5094036;28;20208;-67
2022/12/07 07:31:24;;;;;;;25.50;15.57;;;4.10;99.90;;;;;;5072781;28;20194;-68
2022/12/07 07:33:50;;;;;;;21.03;16.07;;;4.10;99.90;;;;;;5073486;28;20224;-67
2022/12/07 07:36:17;;;;;;;21.70;15.97;;;4.10;99.90;;;;;;5074118;28;20296;-68
2022/12/07 07:38:42;;;;;;;19.57;16.20;;;4.10;99.90;;;;;;5073582;28;20173;-67
2022/12/07 07:41:08;;;;;;;15.27;13.70;;;4.20;99.90;;;;;;5088815;28;20230;-67
2022/12/07 07:43:33;;;;;;;14.27;12.80;;;4.20;99.90;;;;;;5093890;28;20174;-67
2022/12/07 07:45:59;;;;;;;15.77;14.10;;;4.20;99.90;;;;;;5092032;28;20189;-67
2022/12/07 07:48:25;;;;;;;19.67;14.90;;;4.30;99.90;;;;;;5093681;28;20712;-68
2022/12/07 07:50:51;;;;;;;24.57;16.03;;;4.30;99.90;;;;;;5080008;28;20182;-68
2022/12/07 07:53:16;;;;;;;18.83;16.43;;;4.30;99.90;;;;;;5073291;28;20221;-67
2022/12/07 07:55:50;;;;;;;34.60;20.03;;;4.30;99.90;;;;;;5083854;28;20225;-68
2022/12/07 07:58:16;;;;;;;23.33;19.67;;;4.20;99.90;;;;;;5095490;28;20169;-68
2022/12/07 08:00:41;;;;;;;26.27;17.03;;;4.30;99.90;;;;;;5085264;28;20187;-68
2022/12/07 08:03:07;;;;;;;19.07;14.60;;;4.40;99.90;;;;;;5076094;28;20174;-68
2022/12/07 08:05:33;;;;;;;17.07;15.23;;;4.40;99.90;;;;;;5084197;28;20261;-68
2022/12/07 08:07:58;;;;;;;15.13;11.13;;;4.40;99.90;;;;;;5094921;28;20204;-67
2022/12/07 08:10:24;;;;;;;13.43;11.77;;;4.40;99.90;;;;;;5088294;28;20451;-68
2022/12/07 08:15:37;;;;;;;21.70;13.37;;;4.40;99.90;;;;;;5082697;28;20576;-68
2022/12/07 08:18:03;;;;;;;20.37;13.87;;;4.50;99.90;;;;;;5093661;28;20205;-68
2022/12/07 08:20:31;;;;;;;28.23;14.43;;;4.50;99.90;;;;;;5086562;28;20741;-68
2022/12/07 08:22:57;;;;;;;21.90;11.97;;;4.50;99.90;;;;;;5072584;28;20564;-68
2022/12/07 08:25:22;;;;;;;19.80;13.77;;;4.60;99.90;;;;;;5076751;28;20173;-68
2022/12/07 08:27:49;;;;;;;13.83;12.33;;;4.60;99.90;;;;;;5092620;28;20532;-68
2022/12/07 08:30:15;;;;;;;14.70;12.97;;;4.50;99.90;;;;;;5088984;28;20185;-68
2022/12/07 08:32:41;;;;;;;12.90;11.47;;;4.60;99.90;;;;;;5086867;28;20250;-68
2022/12/07 08:35:07;;;;;;;15.27;12.43;;;4.60;99.90;;;;;;5088602;28;20648;-69
2022/12/07 08:37:33;;;;;;;18.90;13.87;;;4.70;99.90;;;;;;5073987;28;20194;-69
2022/12/07 08:39:58;;;;;;;17.43;12.60;;;4.70;99.90;;;;;;5073698;28;20541;-69
2022/12/07 08:42:29;;;;;;;15.17;13.60;;;4.80;99.90;;;;;;5053809;28;20271;-69
2022/12/07 08:44:55;;;;;;;18.93;12.80;;;4.80;99.90;;;;;;5055085;28;20185;-69
2022/12/07 08:47:21;;;;;;;18.77;13.50;;;4.90;99.90;;;;;;5072308;28;20205;-69
2022/12/07 08:49:48;;;;;;;18.40;14.33;;;4.90;99.90;;;;;;5071942;28;20543;-69
2022/12/07 08:52:14;;;;;;;14.47;12.20;;;4.90;99.90;;;;;;5052449;28;20205;-69
2022/12/07 08:54:41;;;;;;;13.93;11.33;;;4.90;99.90;;;;;;5052166;28;20549;-69
2022/12/07 08:57:07;;;;;;;17.73;15.47;;;4.90;99.90;;;;;;5080872;28;20209;-69
2022/12/07 08:59:35;;;;;;;16.43;12.77;;;5.00;99.90;;;;;;5071803;28;20170;-69
2022/12/07 09:02:01;;;;;;;18.30;14.07;;;5.20;99.90;;;;;;5072129;28;20281;-69
2022/12/07 09:04:27;;;;;;;23.00;14.97;;;5.40;99.90;;;;;;5072077;28;20257;-69
2022/12/07 09:06:54;;;;;;;14.80;13.30;;;5.60;99.90;;;;;;5068706;28;20209;-69
2022/12/07 09:09:20;;;;;;;22.03;12.57;;;5.70;99.90;;;;;;5091903;28;20184;-68
2022/12/07 09:11:45;;;;;;;21.13;16.50;;;5.70;99.90;;;;;;5081640;28;20528;-68
2022/12/07 09:14:12;;;;;;;16.47;14.53;;;5.70;99.90;;;;;;5075894;28;20182;-68
2022/12/07 09:16:38;;;;;;;13.03;11.67;;;5.60;99.90;;;;;;5087023;28;20209;-68
2022/12/07 09:19:03;;;;;;;15.27;13.43;;;5.50;99.90;;;;;;5078999;28;20174;-69
2022/12/07 09:21:29;;;;;;;22.73;12.83;;;5.50;99.90;;;;;;5072144;28;20232;-69
2022/12/07 09:23:55;;;;;;;18.40;15.73;;;5.40;99.90;;;;;;5071832;28;20545;-69
2022/12/07 09:26:20;;;;;;;21.97;13.40;;;5.40;99.90;;;;;;5075290;28;20245;-69
2022/12/07 09:28:46;;;;;;;14.57;13.03;;;5.40;99.90;;;;;;5073843;28;20227;-68
2022/12/07 09:31:11;;;;;;;15.87;13.40;;;5.40;99.90;;;;;;5075104;28;20182;-69
2022/12/07 09:33:37;;;;;;;25.47;18.73;;;5.40;99.90;;;;;;5090739;28;20181;-68
2022/12/07 09:36:04;;;;;;;15.63;13.03;;;5.50;99.90;;;;;;5095806;28;20200;-69
2022/12/07 09:38:32;;;;;;;20.67;14.83;;;5.50;99.90;;;;;;5095861;28;20169;-69
2022/12/07 09:41:04;;;;;;;19.40;16.80;;;5.70;99.90;;;;;;5095108;28;20196;-69
2022/12/07 09:43:30;;;;;;;25.20;15.80;;;5.80;99.90;;;;;;5094419;28;20621;-69
2022/12/07 09:45:56;;;;;;;16.40;13.03;;;6.40;99.90;;;;;;5090511;28;20256;-70
2022/12/07 09:48:38;;;;;;;18.33;11.37;;;6.40;99.90;;;;;;5091800;28;20173;-69
2022/12/07 09:51:21;;;;;;;18.13;11.37;;;6.60;99.90;;;;;;5091348;28;20169;-69
2022/12/07 09:53:48;;;;;;;20.63;11.23;;;6.70;99.90;;;;;;5091787;28;20252;-69
2022/12/07 09:56:16;;;;;;;13.63;12.00;;;6.70;99.90;;;;;;5091465;28;20581;-69
2022/12/07 09:58:43;;;;;;;17.07;12.50;;;6.70;99.90;;;;;;5091482;28;20165;-69
2022/12/07 10:01:08;;;;;;;13.07;10.53;;;6.70;99.90;;;;;;5091205;28;20234;-69
2022/12/07 10:03:39;;;;;;;23.43;11.70;;;6.70;99.90;;;;;;5091698;28;20165;-69
2022/12/07 10:06:07;;;;;;;15.43;11.77;;;6.60;99.90;;;;;;5091462;28;20192;-69
2022/12/07 10:08:33;;;;;;;10.53;9.53;;;6.50;99.90;;;;;;5091573;28;20583;-69
2022/12/07 10:11:00;;;;;;;12.40;11.03;;;6.50;99.90;;;;;;5091057;28;20177;-67
2022/12/07 10:13:38;;;;;;;16.87;11.43;;;6.50;99.90;;;;;;5091457;28;20182;-67
2022/12/07 10:16:04;;;;;;;14.57;10.53;;;6.50;99.90;;;;;;5091200;28;20189;-67
2022/12/07 10:18:35;;;;;;;13.57;12.00;;;6.40;99.90;;;;;;5091450;28;20599;-68
2022/12/07 10:21:04;;;;;;;12.10;10.50;;;6.50;99.90;;;;;;5090952;28;20170;-68
2022/12/07 10:23:30;;;;;;;13.37;11.93;;;6.50;99.90;;;;;;5091397;28;20538;-67
2022/12/07 10:25:56;;;;;;;14.00;12.37;;;6.50;99.90;;;;;;5091238;28;20169;-67
2022/12/07 10:28:22;;;;;;;13.97;10.43;;;6.60;99.90;;;;;;5091383;28;20185;-68
2022/12/07 10:30:57;;;;;;;14.07;12.67;;;6.90;99.90;;;;;;5091033;28;20217;-67
2022/12/07 10:33:35;;;;;;;16.37;13.07;;;7.20;99.90;;;;;;5091374;28;20208;-66
2022/12/07 10:36:17;;;;;;;18.67;12.03;;;7.40;99.90;;;;;;5090943;28;20244;-67
2022/12/07 10:38:59;;;;;;;11.90;10.73;;;7.50;99.90;;;;;;5091149;28;20166;-68
2022/12/07 10:41:25;;;;;;;11.03;9.93;;;7.70;99.90;;;;;;5090912;28;20170;-67
2022/12/07 10:43:54;;;;;;;14.70;9.93;;;7.70;99.90;;;;;;5091144;28;20170;-66
2022/12/07 10:46:30;;;;;;;10.47;9.57;;;7.70;99.90;;;;;;5090214;28;20225;-68
2022/12/07 10:49:23;;;;;;;11.97;9.13;;;7.50;99.90;;;;;;5073405;28;20542;-67
2022/12/07 10:52:40;;;;;;;13.47;10.17;;;7.30;99.90;;;;;;5094812;28;20898;-68
2022/12/07 10:55:21;;;;;;;11.33;8.97;;;7.20;99.90;;;;;;5052295;28;20559;-67
2022/12/07 10:58:02;;;;;;;11.27;9.47;;;7.20;99.90;;;;;;5094565;28;20216;-67
2022/12/07 11:01:07;;;;;;;13.00;10.30;;;7.10;99.90;;;;;;5094437;28;20841;-68
2022/12/07 11:03:50;;;;;;;10.07;9.17;;;7.00;99.90;;;;;;5089442;28;20173;-68
2022/12/07 11:06:19;;;;;;;11.57;10.37;;;7.10;99.90;;;;;;5054334;28;20202;-68
2022/12/07 11:09:21;;;;;;;17.03;11.07;;;7.20;99.90;;;;;;5065413;28;20206;-67
2022/12/07 11:12:02;;;;;;;11.07;8.37;;;7.20;99.90;;;;;;5039164;28;20194;-68
2022/12/07 11:14:58;;;;;;;17.70;8.77;;;7.00;99.90;;;;;;5086752;28;20512;-67
2022/12/07 11:17:29;;;;;;;9.63;8.73;;;6.80;99.90;;;;;;5058951;28;20225;-67
2022/12/07 11:20:26;;;;;;;9.97;9.07;;;6.70;99.90;;;;;;5077566;28;20181;-67
2022/12/07 11:23:17;;;;;;;13.70;8.37;;;6.60;99.90;;;;;;5098974;28;20170;-67
2022/12/07 11:26:14;;;;;;;9.27;8.57;;;6.50;99.90;;;;;;5095826;28;20639;-67
2022/12/07 11:28:45;;;;;;;9.53;7.50;;;6.40;99.90;;;;;;5034814;28;20239;-67
2022/12/07 11:31:31;;;;;;;10.07;8.17;;;6.40;99.90;;;;;;5078147;28;20458;-67
2022/12/07 11:34:09;;;;;;;9.20;8.40;;;6.30;99.90;;;;;;5084956;28;20703;-67
2022/12/07 11:36:43;;;;;;;8.77;8.00;;;6.20;99.90;;;;;;5098870;28;20208;-67
2022/12/07 11:39:36;;;;;;;13.03;9.20;;;6.10;99.90;;;;;;5089861;28;20214;-67
2022/12/07 11:42:20;;;;;;;13.37;9.40;;;6.10;99.90;;;;;;5073225;28;20261;-67
2022/12/07 11:45:00;;;;;;;9.67;8.67;;;6.00;99.90;;;;;;5091617;28;20177;-67
2022/12/07 11:47:35;;;;;;;9.30;8.43;;;6.00;99.90;;;;;;5080262;28;20227;-67
2022/12/07 11:50:19;;;;;;;11.07;8.40;;;6.00;99.90;;;;;;5083596;28;20182;-67
2022/12/07 11:52:52;;;;;;;9.53;8.63;;;6.00;99.90;;;;;;5076812;28;20257;-67
2022/12/07 11:55:39;;;;;;;13.37;9.03;;;6.00;99.90;;;;;;5091607;28;20185;-67
2022/12/07 11:58:21;;;;;;;9.93;8.97;;;5.90;99.90;;;;;;5095771;28;20548;-67
2022/12/07 12:00:53;;;;;;;12.73;9.17;;;5.90;99.90;;;;;;5075879;28;20174;-67
2022/12/07 12:03:33;;;;;;;14.70;9.37;;;5.90;99.90;;;;;;5075470;28;20170;-67
2022/12/07 12:05:59;;;;;;;11.40;8.80;;;5.90;99.90;;;;;;5075241;28;20178;-67
2022/12/07 12:08:32;;;;;;;11.87;10.67;;;5.90;99.90;;;;;;5075748;28;20261;-67
2022/12/07 12:11:49;;;;;;;11.10;9.83;;;5.90;99.90;;;;;;5093904;28;20199;-67
2022/12/07 12:14:23;;;;;;;13.70;9.80;;;5.90;99.90;;;;;;4988715;28;20660;-67
2022/12/07 12:16:56;;;;;;;8.20;7.60;;;5.80;99.90;;;;;;4973850;28;20307;-67
2022/12/07 12:19:59;;;;;;;10.00;9.07;;;5.70;99.90;;;;;;5030809;28;20227;-67
2022/12/07 12:22:36;;;;;;;11.03;9.63;;;5.70;99.90;;;;;;5095444;28;20185;-67
2022/12/07 12:25:05;;;;;;;10.17;8.17;;;5.60;99.90;;;;;;5085335;28;20185;-67
2022/12/07 12:27:34;;;;;;;12.10;10.30;;;5.60;99.90;;;;;;5075257;28;20605;-67
2022/12/07 12:30:03;;;;;;;18.73;8.97;;;5.60;99.90;;;;;;5082473;28;20535;-67
2022/12/07 12:32:44;;;;;;;11.33;9.03;;;5.60;99.90;;;;;;5095114;28;20181;-67
2022/12/07 12:35:35;;;;;;;10.13;8.37;;;5.60;99.90;;;;;;5085742;28;20254;-67
2022/12/07 12:38:31;;;;;;;9.43;8.43;;;5.60;99.90;;;;;;5074787;28;20198;-67
2022/12/07 12:40:58;;;;;;;9.57;8.67;;;5.60;99.90;;;;;;5088746;28;20260;-67
2022/12/07 12:43:47;;;;;;;9.03;7.70;;;5.60;99.90;;;;;;5094693;28;20175;-67
2022/12/07 12:46:33;;;;;;;8.00;7.30;;;5.60;99.90;;;;;;5078167;28;20190;-68
2022/12/07 12:49:17;;;;;;;13.20;9.63;;;5.60;99.90;;;;;;5078855;28;20181;-67
2022/12/07 12:52:14;;;;;;;9.93;8.90;;;5.60;99.90;;;;;;5075148;28;20633;-67
2022/12/07 12:54:57;;;;;;;9.90;8.97;;;5.50;99.90;;;;;;5089784;28;20264;-67
2022/12/07 12:57:28;;;;;;;19.17;9.17;;;5.50;99.90;;;;;;5092262;28;20205;-68
2022/12/07 12:59:54;;;;;;;9.33;8.33;;;5.60;99.90;;;;;;5075098;28;20236;-68
2022/12/07 13:02:34;;;;;;;14.27;11.10;;;5.70;99.90;;;;;;5072290;28;20174;-69
2022/12/07 13:05:03;;;;;;;17.80;11.80;;;5.90;99.90;;;;;;5088587;28;20181;-68
2022/12/07 13:08:02;;;;;;;15.77;11.43;;;6.00;99.90;;;;;;5092330;28;20196;-68
2022/12/07 13:10:30;;;;;;;13.27;11.37;;;6.20;99.90;;;;;;5074120;28;20205;-67
2022/12/07 13:13:11;;;;;;;12.60;11.03;;;6.40;99.90;;;;;;5093017;28;20538;-68